createdAt,value
2018-07-10T00:02:22.867Z,41.37
2018-07-10T00:07:16.580Z,41.83
2018-07-10T00:09:59.717Z,41.90
2018-07-10T00:12:28.383Z,42.18
2018-07-10T00:14:58.221Z,42.53
2018-07-10T00:17:26.925Z,42.98
2018-07-10T00:19:56.814Z,42.39
2018-07-10T00:22:26.199Z,42.27
2018-07-10T00:24:55.293Z,42.07
2018-07-10T00:27:24.371Z,42.03
2018-07-10T00:29:53.465Z,42.04
2018-07-10T00:32:22.149Z,41.79
2018-07-10T00:34:56.128Z,42.01
2018-07-10T00:37:25.676Z,42.38
2018-07-10T00:39:54.330Z,43.16
2018-07-10T00:42:23.230Z,43.62
2018-07-10T00:44:51.932Z,43.72
2018-07-10T00:47:20.633Z,42.87
2018-07-10T00:49:49.407Z,43.11
2018-07-10T00:52:33.384Z,44.30
2018-07-10T00:55:03.264Z,44.21
2018-07-10T00:57:36.295Z,44.18
2018-07-10T01:00:05.766Z,44.67
2018-07-10T01:02:34.514Z,45.30
2018-07-10T01:05:04.175Z,44.91
2018-07-10T01:07:33.576Z,44.18
2018-07-10T01:10:02.848Z,43.70
2018-07-10T01:12:32.643Z,43.96
2018-07-10T01:15:01.463Z,44.53
2018-07-10T01:17:30.307Z,44.42
2018-07-10T01:19:59.675Z,45.33
2018-07-10T01:22:29.752Z,45.39
2018-07-10T01:24:58.638Z,45.29
2018-07-10T01:27:29.003Z,45.53
2018-07-10T01:29:57.760Z,45.45
2018-07-10T01:32:26.996Z,45.95
2018-07-10T01:34:55.830Z,45.87
2018-07-10T01:37:25.089Z,46.55
2018-07-10T01:39:54.485Z,46.37
2018-07-10T01:42:23.819Z,46.52
2018-07-10T01:44:52.708Z,46.60
2018-07-10T01:47:21.927Z,46.01
2018-07-10T01:49:51.056Z,45.61
2018-07-10T01:52:21.247Z,46.19
2018-07-10T01:54:50.158Z,46.77
2018-07-10T01:57:19.535Z,46.55
2018-07-10T01:59:50.072Z,47.10
2018-07-10T02:02:19.889Z,47.07
2018-07-10T02:04:49.872Z,46.98
2018-07-10T02:07:19.024Z,47.92
2018-07-10T02:09:48.324Z,48.09
2018-07-10T02:12:18.875Z,48.15
2018-07-10T02:14:47.852Z,48.41
2018-07-10T02:17:16.437Z,49.05
2018-07-10T02:19:45.126Z,48.78
2018-07-10T02:22:14.141Z,48.48
2018-07-10T02:24:42.903Z,48.29
2018-07-10T02:27:12.126Z,48.38
2018-07-10T02:29:40.969Z,48.18
2018-07-10T02:32:10.221Z,48.06
2018-07-10T02:34:38.939Z,47.98
2018-07-10T02:37:07.558Z,48.15
2018-07-10T02:39:36.838Z,49.09
2018-07-10T02:42:05.843Z,49.56
2018-07-10T02:44:34.604Z,50.10
2018-07-10T02:47:04.419Z,50.75
2018-07-10T02:49:33.231Z,50.57
2018-07-10T02:52:05.693Z,50.23
2018-07-10T02:54:36.674Z,50.37
2018-07-10T02:57:08.779Z,50.54
2018-07-10T02:59:40.548Z,50.14
2018-07-10T03:02:22.476Z,50.46
2018-07-10T03:04:57.023Z,51.34
2018-07-10T03:07:26.822Z,51.09
2018-07-10T03:09:57.068Z,50.54
2018-07-10T03:12:29.755Z,51.36
2018-07-10T03:15:02.981Z,52.11
2018-07-10T03:17:31.938Z,52.13
2018-07-10T03:20:01.575Z,51.71
2018-07-10T03:22:30.221Z,51.60
2018-07-10T03:24:59.111Z,51.39
2018-07-10T03:27:28.297Z,51.71
2018-07-10T03:29:58.228Z,52.46
2018-07-10T03:32:27.755Z,52.45
2018-07-10T03:34:57.213Z,52.38
2018-07-10T03:37:26.888Z,51.66
2018-07-10T03:39:55.887Z,51.71
2018-07-10T03:42:26.354Z,51.58
2018-07-10T03:44:56.085Z,51.28
2018-07-10T03:47:26.557Z,51.65
2018-07-10T03:49:56.068Z,51.54
2018-07-10T03:52:31.788Z,51.45
2018-07-10T03:55:03.457Z,51.08
2018-07-10T03:57:32.172Z,51.07
2018-07-10T04:00:06.436Z,51.61
2018-07-10T04:02:35.727Z,52.15
2018-07-10T04:05:04.407Z,51.93
2018-07-10T04:07:34.108Z,52.38
2018-07-10T04:10:03.862Z,52.21
2018-07-10T04:12:35.860Z,52.23
2018-07-10T04:15:06.517Z,52.87
2018-07-10T04:18:41.247Z,52.42
2018-07-10T04:21:28.902Z,52.01
2018-07-10T04:24:17.910Z,52.24
2018-07-10T04:27:22.448Z,52.61
2018-07-10T04:30:05.541Z,52.22
2018-07-10T04:32:36.253Z,52.48
2018-07-10T04:35:05.331Z,52.35
2018-07-10T04:37:35.804Z,52.76
2018-07-10T04:40:05.496Z,52.70
2018-07-10T04:42:42.448Z,52.15
2018-07-10T04:45:17.569Z,51.51
2018-07-10T04:47:57.701Z,52.21
2018-07-10T04:50:39.444Z,51.96
2018-07-10T04:53:29.562Z,51.61
2018-07-10T04:55:59.846Z,52.16
2018-07-10T04:58:29.524Z,52.06
2018-07-10T05:01:03.917Z,51.81
2018-07-10T05:03:33.147Z,51.31
2018-07-10T05:06:04.922Z,51.46
2018-07-10T05:08:34.713Z,50.97
2018-07-10T05:11:06.008Z,51.02
2018-07-10T05:13:36.556Z,52.56
2018-07-10T05:16:06.741Z,52.29
2018-07-10T05:18:37.786Z,51.60
2018-07-10T05:21:09.002Z,51.71
2018-07-10T05:23:37.879Z,52.13
2018-07-10T05:26:07.188Z,51.71
2018-07-10T05:28:35.924Z,51.99
2018-07-10T05:31:04.949Z,52.95
2018-07-10T05:33:34.788Z,52.99
2018-07-10T05:36:05.189Z,52.64
2018-07-10T05:38:42.308Z,52.30
2018-07-10T05:41:15.229Z,52.22
2018-07-10T05:43:49.913Z,52.07
2018-07-10T05:46:21.400Z,52.19
2018-07-10T05:49:00.440Z,52.22
2018-07-10T05:51:34.627Z,52.10
2018-07-10T05:54:06.302Z,52.73
2018-07-10T05:56:35.923Z,53.58
2018-07-10T05:59:07.388Z,54.88
2018-07-10T06:01:38.342Z,54.57
2018-07-10T06:04:12.159Z,54.43
2018-07-10T06:06:41.693Z,54.50
2018-07-10T06:09:10.690Z,54.60
2018-07-10T06:11:39.526Z,54.43
2018-07-10T06:14:09.417Z,54.02
2018-07-10T06:16:41.442Z,53.30
2018-07-10T06:19:10.615Z,53.38
2018-07-10T06:21:41.961Z,53.29
2018-07-10T06:24:12.664Z,53.24
2018-07-10T06:26:44.039Z,53.21
2018-07-10T06:29:16.701Z,53.47
2018-07-10T06:31:53.015Z,53.04
2018-07-10T06:34:33.735Z,52.23
2018-07-10T06:37:10.969Z,52.59
2018-07-10T06:39:40.321Z,52.72
2018-07-10T06:42:11.804Z,52.74
2018-07-10T06:44:40.600Z,53.60
2018-07-10T06:47:21.468Z,53.18
2018-07-10T06:49:50.318Z,53.94
2018-07-10T06:52:20.819Z,54.01
2018-07-10T06:55:07.011Z,54.58
2018-07-10T06:57:37.740Z,54.52
2018-07-10T07:00:09.058Z,54.27
2018-07-10T07:02:39.332Z,54.19
2018-07-10T07:05:09.228Z,54.81
2018-07-10T07:07:44.820Z,54.31
2018-07-10T07:10:14.691Z,54.49
2018-07-10T07:12:44.160Z,54.51
2018-07-10T07:15:14.560Z,54.16
2018-07-10T07:17:47.397Z,54.70
2018-07-10T07:20:16.068Z,54.54
2018-07-10T07:22:46.575Z,54.17
2018-07-10T07:25:16.294Z,54.51
2018-07-10T07:27:47.860Z,55.09
2018-07-10T07:30:25.852Z,56.16
2018-07-10T07:32:54.840Z,56.40
2018-07-10T07:35:23.635Z,56.81
2018-07-10T07:37:53.475Z,57.17
2018-07-10T07:40:26.623Z,56.30
2018-07-10T07:42:55.695Z,56.39
2018-07-10T07:45:25.061Z,56.52
2018-07-10T07:47:55.023Z,55.91
2018-07-10T07:50:23.799Z,56.57
2018-07-10T07:52:52.977Z,56.40
2018-07-10T07:55:22.622Z,56.53
2018-07-10T07:57:51.286Z,56.79
2018-07-10T08:00:20.263Z,57.42
2018-07-10T08:02:49.275Z,57.60
2018-07-10T08:05:19.086Z,56.14
2018-07-10T08:07:47.814Z,56.24
2018-07-10T08:10:17.772Z,56.25
2018-07-10T08:12:46.992Z,57.01
2018-07-10T08:15:17.707Z,57.98
2018-07-10T08:17:46.492Z,58.12
2018-07-10T08:20:15.341Z,57.38
2018-07-10T08:22:44.298Z,58.38
2018-07-10T08:25:14.213Z,58.88
2018-07-10T08:27:43.571Z,58.37
2018-07-10T08:30:13.006Z,58.71
2018-07-10T08:32:41.836Z,57.52
2018-07-10T08:35:10.617Z,57.28
2018-07-10T08:37:40.857Z,57.34
2018-07-10T08:40:09.469Z,57.45
2018-07-10T08:42:38.709Z,56.95
2018-07-10T08:45:07.661Z,57.45
2018-07-10T08:47:38.386Z,56.75
2018-07-10T08:50:07.572Z,57.27
2018-07-10T08:52:37.198Z,56.64
2018-07-10T08:55:07.547Z,55.35
2018-07-10T08:57:36.561Z,54.63
2018-07-10T09:00:05.730Z,53.94
2018-07-10T09:02:34.599Z,53.52
2018-07-10T09:05:04.219Z,54.59
2018-07-10T09:07:33.069Z,55.14
2018-07-10T09:10:02.100Z,53.92
2018-07-10T09:12:30.904Z,53.35
2018-07-10T09:15:00.151Z,53.17
2018-07-10T09:17:29.922Z,52.55
2018-07-10T09:20:04.702Z,52.69
2018-07-10T09:22:33.740Z,52.13
2018-07-10T09:25:05.210Z,51.41
2018-07-10T09:27:34.006Z,51.02
2018-07-10T09:30:02.854Z,50.19
2018-07-10T09:32:36.801Z,48.97
2018-07-10T09:35:07.260Z,50.40
2018-07-10T09:37:41.826Z,50.34
2018-07-10T09:40:19.240Z,50.25
2018-07-10T09:42:58.799Z,50.18
2018-07-10T09:45:29.222Z,46.62
2018-07-10T09:47:57.902Z,47.94
2018-07-10T09:50:26.600Z,48.56
2018-07-10T09:52:55.325Z,48.76
2018-07-10T09:55:24.147Z,48.37
2018-07-10T09:57:53.289Z,48.06
2018-07-10T10:00:27.785Z,48.22
2018-07-10T10:02:56.679Z,49.07
2018-07-10T10:05:26.097Z,51.11
2018-07-10T10:07:54.796Z,51.40
2018-07-10T10:10:23.635Z,53.03
2018-07-10T10:12:53.420Z,53.31
2018-07-10T10:15:27.446Z,52.56
2018-07-10T10:17:58.036Z,51.49
2018-07-10T10:20:31.978Z,52.26
2018-07-10T10:23:02.905Z,51.52
2018-07-10T10:25:34.398Z,50.82
2018-07-10T10:28:04.848Z,50.89
2018-07-10T10:30:34.027Z,50.74
2018-07-10T10:33:03.235Z,50.98
2018-07-10T10:35:32.817Z,52.01
2018-07-10T10:38:02.599Z,52.36
2018-07-10T10:40:33.943Z,52.10
2018-07-10T10:43:06.132Z,53.02
2018-07-10T10:45:36.637Z,52.44
2018-07-10T10:48:05.816Z,52.00
2018-07-10T10:50:35.232Z,51.99
2018-07-10T10:53:04.975Z,52.59
2018-07-10T10:55:36.757Z,54.25
2018-07-10T10:58:06.389Z,54.14
2018-07-10T11:00:39.919Z,52.49
2018-07-10T11:03:09.632Z,53.20
2018-07-10T11:05:39.499Z,52.93
2018-07-10T11:08:10.483Z,53.93
2018-07-10T11:10:39.995Z,54.55
2018-07-10T11:13:09.157Z,54.21
2018-07-10T11:15:45.389Z,57.96
2018-07-10T11:18:22.258Z,60.45
2018-07-10T11:20:55.577Z,63.21
2018-07-10T11:23:53.762Z,64.97
2018-07-10T11:26:35.785Z,63.83
2018-07-10T11:29:05.503Z,66.43
2018-07-10T11:31:34.938Z,64.14
2018-07-10T11:34:04.236Z,64.17
2018-07-10T11:36:32.952Z,64.36
2018-07-10T11:39:07.845Z,63.93
2018-07-10T11:41:40.964Z,64.35
2018-07-10T11:44:10.179Z,64.27
2018-07-10T11:46:40.085Z,64.19
2018-07-10T11:49:10.525Z,66.84
2018-07-10T11:51:40.448Z,65.45
2018-07-10T11:54:09.533Z,63.73
2018-07-10T11:56:40.247Z,63.82
2018-07-10T11:59:09.087Z,64.32
2018-07-10T12:01:38.957Z,64.47
2018-07-10T12:04:09.970Z,62.52
2018-07-10T12:06:47.444Z,64.22
2018-07-10T12:09:17.712Z,64.90
2018-07-10T12:11:46.668Z,60.64
2018-07-10T12:14:17.332Z,62.37
2018-07-10T12:16:47.386Z,59.36
2018-07-10T12:19:16.872Z,59.27
2018-07-10T12:21:46.185Z,58.24
2018-07-10T12:24:16.639Z,56.94
2018-07-10T12:26:46.628Z,55.89
2018-07-10T12:29:17.016Z,54.12
2018-07-10T12:31:46.878Z,53.22
2018-07-10T12:34:17.214Z,52.81
2018-07-10T12:36:48.111Z,51.93
2018-07-10T12:39:18.758Z,52.29
2018-07-10T12:41:48.707Z,52.54
2018-07-10T12:44:18.056Z,52.88
2018-07-10T12:46:49.067Z,53.16
2018-07-10T12:49:19.121Z,52.60
2018-07-10T12:51:52.069Z,52.94
2018-07-10T12:54:20.886Z,51.81
2018-07-10T12:56:51.352Z,51.63
2018-07-10T12:59:20.577Z,50.20
2018-07-10T13:01:51.477Z,51.71
2018-07-10T13:04:21.311Z,50.58
2018-07-10T13:06:51.411Z,50.81
2018-07-10T13:09:23.302Z,50.85
2018-07-10T13:11:52.692Z,49.80
2018-07-10T13:14:21.500Z,49.10
2018-07-10T13:16:50.320Z,49.14
2018-07-10T13:19:20.837Z,49.26
2018-07-10T13:21:51.358Z,49.57
2018-07-10T13:24:20.159Z,49.46
2018-07-10T13:26:48.781Z,49.30
2018-07-10T13:29:17.821Z,47.45
2018-07-10T13:31:47.248Z,45.61
2018-07-10T13:34:15.984Z,44.86
2018-07-10T13:36:45.374Z,44.46
2018-07-10T13:39:14.193Z,45.63
2018-07-10T13:41:43.939Z,45.65
2018-07-10T13:44:12.914Z,46.06
2018-07-10T13:46:42.879Z,46.94
2018-07-10T13:49:11.631Z,45.73
2018-07-10T13:51:40.327Z,45.87
2018-07-10T13:54:08.975Z,45.22
2018-07-10T13:56:38.273Z,44.13
2018-07-10T13:59:07.242Z,44.52
2018-07-10T14:01:36.371Z,44.83
2018-07-10T14:04:05.776Z,44.14
2018-07-10T14:06:35.173Z,43.97
2018-07-10T14:09:05.100Z,43.53
2018-07-10T14:11:35.486Z,44.10
2018-07-10T14:14:05.590Z,43.17
2018-07-10T14:16:35.118Z,43.55
2018-07-10T14:19:04.386Z,43.17
2018-07-10T14:21:35.238Z,42.22
2018-07-10T14:24:04.671Z,41.66
2018-07-10T14:26:35.822Z,41.30
2018-07-10T14:29:06.104Z,41.27
2018-07-10T14:31:35.020Z,42.98
2018-07-10T14:34:04.480Z,41.89
2018-07-10T14:36:34.067Z,42.98
2018-07-10T14:39:03.425Z,42.05
2018-07-10T14:41:33.306Z,43.35
2018-07-10T14:44:03.822Z,42.33
2018-07-10T14:46:33.298Z,42.22
2018-07-10T14:49:03.712Z,42.87
2018-07-10T14:51:40.315Z,42.42
2018-07-10T14:54:09.650Z,42.51
2018-07-10T14:56:38.912Z,40.79
2018-07-10T14:59:08.760Z,39.58
2018-07-10T15:01:38.477Z,39.92
2018-07-10T15:04:09.427Z,39.95
2018-07-10T15:06:38.522Z,41.18
2018-07-10T15:09:09.230Z,41.15
2018-07-10T15:11:38.786Z,40.41
2018-07-10T15:14:09.618Z,41.75
2018-07-10T15:16:44.259Z,41.46
2018-07-10T15:19:15.289Z,42.01
2018-07-10T15:21:45.004Z,41.62
2018-07-10T15:24:13.982Z,41.01
2018-07-10T15:26:43.409Z,40.65
2018-07-10T15:29:17.889Z,40.68
2018-07-10T15:31:46.714Z,39.16
2018-07-10T15:34:16.077Z,38.85
2018-07-10T15:36:45.605Z,38.12
2018-07-10T15:39:15.790Z,38.69
2018-07-10T15:41:44.965Z,39.08
2018-07-10T15:44:14.435Z,38.95
2018-07-10T15:46:45.262Z,39.32
2018-07-10T15:49:14.683Z,38.52
2018-07-10T15:51:44.052Z,38.25
2018-07-10T15:54:12.940Z,39.38
2018-07-10T15:56:43.296Z,39.03
2018-07-10T15:59:12.708Z,38.59
2018-07-10T16:01:42.281Z,38.96
2018-07-10T16:04:12.100Z,38.85
2018-07-10T16:06:42.752Z,39.29
2018-07-10T16:09:20.046Z,38.94
2018-07-10T16:11:58.723Z,38.66
2018-07-10T16:14:29.824Z,39.10
2018-07-10T16:16:59.359Z,38.55
2018-07-10T16:19:34.332Z,39.16
2018-07-10T16:22:08.737Z,39.38
2018-07-10T16:24:47.677Z,39.53
2018-07-10T16:27:21.909Z,38.48
2018-07-10T16:29:50.629Z,39.35
2018-07-10T16:32:19.992Z,40.01
2018-07-10T16:34:49.010Z,39.31
2018-07-10T16:37:18.305Z,39.26
2018-07-10T16:39:48.230Z,39.36
2018-07-10T16:42:22.831Z,37.99
2018-07-10T16:44:52.473Z,38.97
2018-07-10T16:47:28.645Z,38.48
2018-07-10T16:50:00.802Z,37.92
2018-07-10T16:52:35.126Z,38.73
2018-07-10T16:55:04.230Z,38.50
2018-07-10T16:57:34.644Z,38.72
2018-07-10T17:00:04.025Z,38.04
2018-07-10T17:02:33.419Z,38.68
2018-07-10T17:05:02.396Z,38.75
2018-07-10T17:07:31.141Z,39.00
2018-07-10T17:10:00.347Z,38.91
2018-07-10T17:12:29.593Z,39.72
2018-07-10T17:14:59.768Z,39.76
2018-07-10T17:17:28.972Z,39.10
2018-07-10T17:19:58.809Z,39.53
2018-07-10T17:22:28.326Z,39.02
2018-07-10T17:24:57.195Z,39.12
2018-07-10T17:27:30.293Z,38.77
2018-07-10T17:29:59.396Z,38.74
2018-07-10T17:32:28.339Z,38.63
2018-07-10T17:34:57.120Z,38.73
2018-07-10T17:37:25.887Z,38.42
2018-07-10T17:39:54.620Z,39.02
2018-07-10T17:42:23.392Z,39.20
2018-07-10T17:44:52.033Z,38.50
2018-07-10T17:47:20.866Z,38.99
2018-07-10T17:49:49.644Z,39.06
2018-07-10T17:52:18.725Z,40.41
2018-07-10T17:54:47.470Z,38.94
2018-07-10T17:57:16.314Z,38.61
2018-07-10T17:59:45.214Z,39.46
2018-07-10T18:02:13.948Z,39.25
2018-07-10T18:04:42.967Z,38.72
2018-07-10T18:07:11.778Z,38.21
2018-07-10T18:09:40.549Z,38.72
2018-07-10T18:12:09.332Z,39.00
2018-07-10T18:14:38.077Z,38.98
2018-07-10T18:17:06.869Z,39.41
2018-07-10T18:19:35.625Z,39.48
2018-07-10T18:22:04.347Z,39.67
2018-07-10T18:24:33.335Z,39.58
2018-07-10T18:27:02.509Z,39.14
2018-07-10T18:29:33.140Z,38.50
2018-07-10T18:32:02.081Z,38.98
2018-07-10T18:34:30.769Z,38.92
2018-07-10T18:36:59.509Z,39.10
2018-07-10T18:39:28.483Z,39.50
2018-07-10T18:41:58.683Z,38.99
2018-07-10T18:44:27.550Z,38.77
2018-07-10T18:46:56.341Z,38.81
2018-07-10T18:49:25.197Z,39.50
2018-07-10T18:51:54.661Z,39.45
2018-07-10T18:54:33.955Z,39.77
2018-07-10T18:57:13.348Z,39.26
2018-07-10T18:59:44.510Z,39.47
2018-07-10T19:02:21.692Z,40.30
2018-07-10T19:04:56.457Z,40.51
2018-07-10T19:07:25.373Z,40.91
2018-07-10T19:09:54.715Z,41.59
2018-07-10T19:12:23.828Z,41.63
2018-07-10T19:14:53.809Z,41.94
2018-07-10T19:17:27.933Z,40.96
2018-07-10T19:20:12.708Z,41.66
2018-07-10T19:22:52.840Z,41.25
2018-07-10T19:25:22.091Z,41.69
2018-07-10T19:27:51.829Z,41.41
2018-07-10T19:30:24.222Z,41.84
2018-07-10T19:32:54.147Z,41.56
2018-07-10T19:35:23.621Z,41.70
2018-07-10T19:37:53.773Z,41.60
2018-07-10T19:40:22.581Z,41.99
2018-07-10T19:42:51.409Z,41.57
2018-07-10T19:45:20.527Z,41.62
2018-07-10T19:47:49.843Z,42.62
2018-07-10T19:50:20.445Z,42.37
2018-07-10T19:52:54.269Z,42.63
2018-07-10T19:55:26.741Z,42.32
2018-07-10T19:58:05.031Z,42.67
2018-07-10T20:00:38.006Z,42.63
2018-07-10T20:03:07.759Z,42.34
2018-07-10T20:05:37.100Z,42.66
2018-07-10T20:08:18.454Z,42.42
2018-07-10T20:10:54.171Z,42.90
2018-07-10T20:13:30.907Z,44.49
2018-07-10T20:16:04.665Z,44.52
2018-07-10T20:18:48.270Z,45.60
2018-07-10T20:21:28.979Z,45.64
2018-07-10T20:24:05.772Z,46.01
2018-07-10T20:26:46.396Z,45.98
2018-07-10T20:29:30.608Z,45.81
2018-07-10T20:32:04.108Z,45.22
2018-07-10T20:35:43.623Z,46.95
2018-07-10T20:38:19.764Z,47.17
2018-07-10T20:40:48.930Z,47.05
2018-07-10T20:43:19.540Z,47.25
2018-07-10T20:45:54.093Z,48.92
2018-07-10T20:49:02.136Z,47.96
2018-07-10T20:51:39.553Z,48.32
2018-07-10T20:54:18.462Z,48.26
2018-07-10T20:57:01.449Z,48.35
2018-07-10T20:59:38.792Z,47.39
2018-07-10T21:02:09.687Z,48.04
2018-07-10T21:04:46.516Z,47.42
2018-07-10T21:07:31.117Z,47.26
2018-07-10T21:10:06.456Z,47.49
2018-07-10T21:12:44.401Z,47.55
2018-07-10T21:15:22.965Z,47.26
2018-07-10T21:17:58.879Z,48.20
2018-07-10T21:20:37.153Z,48.66
2018-07-10T21:23:12.746Z,48.96
2018-07-10T21:25:47.109Z,48.40
2018-07-10T21:28:56.107Z,48.43
2018-07-10T21:31:32.305Z,48.12
2018-07-10T21:34:21.176Z,48.45
2018-07-10T21:38:57.189Z,48.52
2018-07-10T21:42:50.483Z,48.55
2018-07-10T21:45:29.726Z,51.17
2018-07-10T21:48:10.629Z,50.52
2018-07-10T21:50:47.877Z,50.09
2018-07-10T21:53:19.963Z,49.67
2018-07-10T21:55:49.012Z,49.60
2018-07-10T21:58:20.056Z,49.59
2018-07-10T22:02:02.601Z,49.52
2018-07-10T22:04:38.447Z,49.91
2018-07-10T22:07:11.151Z,50.49
2018-07-10T22:09:40.810Z,51.05
2018-07-10T22:12:18.239Z,50.29
2018-07-10T22:14:47.934Z,50.56
2018-07-10T22:17:25.258Z,50.97
2018-07-10T22:19:55.682Z,50.51
2018-07-10T22:22:26.865Z,51.29
2018-07-10T22:24:58.271Z,51.34
2018-07-10T22:27:27.195Z,51.62
2018-07-10T22:30:03.866Z,52.48
2018-07-10T22:32:43.358Z,53.05
2018-07-10T22:35:12.279Z,53.00
2018-07-10T22:37:41.358Z,53.62
2018-07-10T22:40:10.782Z,54.41
2018-07-10T22:42:40.601Z,54.50
2018-07-10T22:45:10.196Z,54.50
2018-07-10T22:47:41.102Z,54.94
2018-07-10T22:50:14.064Z,55.61
2018-07-10T22:52:47.927Z,55.19
2018-07-10T22:55:20.642Z,55.14
2018-07-10T22:57:50.753Z,54.45
2018-07-10T23:00:34.474Z,55.38
2018-07-10T23:03:16.174Z,55.15
2018-07-10T23:05:45.366Z,55.49
2018-07-10T23:08:15.536Z,55.14
2018-07-10T23:10:45.644Z,55.29
2018-07-10T23:13:15.753Z,54.67
2018-07-10T23:15:45.710Z,54.92
2018-07-10T23:18:15.911Z,54.87
2018-07-10T23:20:45.151Z,54.48
2018-07-10T23:23:14.029Z,54.88
2018-07-10T23:25:42.752Z,56.17
2018-07-10T23:28:11.708Z,56.73
2018-07-10T23:30:42.154Z,56.65
2018-07-10T23:33:15.871Z,57.62
2018-07-10T23:36:16.355Z,58.09
2018-07-10T23:38:58.019Z,57.33
2018-07-10T23:41:38.423Z,56.77
2018-07-10T23:44:09.433Z,57.19
2018-07-10T23:46:45.747Z,56.92
2018-07-10T23:49:16.793Z,56.97
2018-07-10T23:51:57.018Z,57.09
2018-07-10T23:54:26.431Z,57.49
2018-07-10T23:56:56.419Z,57.07
2018-07-10T23:59:26.482Z,57.76
